Time;durP1;ratioP1;P1;durP2;ratioP2;P2;SDS_P1;SDS_P2;PMS_P1;PMS_P2;Temp;Humidity;BMP_temperature;BMP_pressure;BME280_temperature;BME280_humidity;BME280_pressure;Samples;Min_cycle;Max_cycle;Signal;HPM_P1;HPM_P2
2022/01/07 00:18:16;;;;;;;7.68;4.35;;;;;;;;;;4288007;33;20426;-79
2022/01/07 00:54:42;;;;;;;;;;;;;;;;;;;;;
2022/01/07 01:16:06;;;;;;;17.40;7.07;;;;;;;;;;4258161;33;20076;-80
2022/01/07 01:44:12;;;;;;;17.80;9.48;;;;;;;;;;4235822;34;20444;-82
2022/01/07 02:56:18;;;;;;;;;;;;;;;;;;;;;
2022/01/07 03:49:58;;;;;;;;;;;;;;;;;;;;;
2022/01/07 06:08:49;;;;;;;43.28;19.35;;;;;;;;;;4392788;32;20053;-79
2022/01/07 06:14:27;;;;;;;42.95;19.65;;;;;;;;;;4390147;32;20085;-79
2022/01/07 06:26:52;;;;;;;35.50;18.25;;;;;;;;;;4345261;33;20015;-78
2022/01/07 06:30:00;;;;;;;40.17;17.48;;;;;;;;;;4344326;33;20035;-78
2022/01/07 06:45:10;;;;;;;32.13;18.12;;;;;;;;;;4244001;33;20060;-80
2022/01/07 06:50:38;;;;;;;35.83;17.98;;;;;;;;;;4243409;33;20043;-79
2022/01/07 06:53:09;;;;;;;;;;;;;;;;;;4243506;33;20046;-79
2022/01/07 06:59:14;;;;;;;;;;;;;;;;;;;;;
2022/01/07 07:40:06;;;;;;;;;;;;;;;;;;;;;
2022/01/07 07:45:55;;;;;;;;;;;;;;;;;;;;;
2022/01/07 07:49:02;;;;;;;18.80;12.73;;;;;;;;;;4317893;33;20059;-81
2022/01/07 07:51:31;;;;;;;29.65;12.77;;;;;;;;;;4285441;33;20028;-80
2022/01/07 08:00:11;;;;;;;28.85;13.30;;;;;;;;;;4343525;33;20093;-79
2022/01/07 08:06:23;;;;;;;;;;;;;;;;;;;;;
2022/01/07 08:08:58;;;;;;;25.05;13.25;;;;;;;;;;4256148;33;20160;-79
2022/01/07 08:12:15;;;;;;;;;;;;;;;;;;;;;
2022/01/07 08:20:25;;;;;;;22.20;13.27;;;;;;;;;;4300015;33;20067;-77
2022/01/07 08:23:00;;;;;;;;;;;;;;;;;;;;;
2022/01/07 08:29:06;;;;;;;26.87;11.90;;;;;;;;;;4259554;33;20049;-78
2022/01/07 08:37:48;;;;;;;;;;;;;;;;;;;;;
2022/01/07 08:40:29;;;;;;;21.65;9.95;;;;;;;;;;4259185;33;20127;-78
2022/01/07 08:55:56;;;;;;;;;;;;;;;;;;;;;
2022/01/07 08:58:50;;;;;;;;;;;;;;;;;;;;;
2022/01/07 09:04:48;;;;;;;27.67;11.57;;;;;;;;;;4233796;33;20022;-78
2022/01/07 09:07:42;;;;;;;14.65;9.20;;;;;;;;;;4292018;33;20085;-77
2022/01/07 09:10:07;;;;;;;25.25;9.35;;;;;;;;;;4372654;32;20053;-78
2022/01/07 09:12:40;;;;;;;;;;;;;;;;;;4376900;32;20023;-77
2022/01/07 09:15:46;;;;;;;19.67;9.02;;;;;;;;;;4377046;32;19953;-78
2022/01/07 09:18:26;;;;;;;20.40;8.93;;;;;;;;;;4376309;32;20467;-77
2022/01/07 09:20:57;;;;;;;12.80;7.28;;;;;;;;;;4372125;32;20023;-78
2022/01/07 09:23:22;;;;;;;18.50;8.50;;;;;;;;;;4364111;32;20027;-78
2022/01/07 09:25:48;;;;;;;;;;;;;;;;;;4372161;32;20061;-76
2022/01/07 09:28:19;;;;;;;16.52;9.15;;;;;;;;;;4376619;32;20023;-78
2022/01/07 09:30:50;;;;;;;18.30;9.25;;;;;;;;;;4376418;32;20104;-77
2022/01/07 09:36:36;;;;;;;20.85;9.27;;;;;;;;;;4344380;32;20057;-79
2022/01/07 09:39:07;;;;;;;19.73;8.98;;;;;;;;;;4324463;33;20019;-80
2022/01/07 09:51:28;;;;;;;;;;;;;;;;;;;;;
2022/01/07 09:57:08;;;;;;;;;;;;;;;;;;;;;
2022/01/07 09:59:54;;;;;;;29.05;11.73;;;;;;;;;;4273090;33;20051;-80
2022/01/07 10:02:58;;;;;;;23.33;8.82;;;;;;;;;;4272369;33;20053;-79
2022/01/07 10:29:33;;;;;;;20.83;8.02;;;;;;;;;;4244154;33;20090;-80
2022/01/07 10:35:41;;;;;;;15.93;6.03;;;;;;;;;;4202157;34;20037;-80
2022/01/07 10:44:50;;;;;;;19.70;6.53;;;;;;;;;;4286060;33;20455;-79
2022/01/07 10:50:55;;;;;;;15.52;5.12;;;;;;;;;;4270892;33;20030;-80
2022/01/07 10:53:49;;;;;;;16.83;6.40;;;;;;;;;;4266309;33;20455;-80
2022/01/07 10:56:51;;;;;;;18.02;5.10;;;;;;;;;;4214284;34;20070;-79
2022/01/07 11:00:04;;;;;;;;;;;;;;;;;;;;;
2022/01/07 11:02:48;;;;;;;;;;;;;;;;;;;;;
2022/01/07 11:05:20;;;;;;;19.00;6.68;;;;;;;;;;4215467;34;20088;-79
2022/01/07 11:07:49;;;;;;;19.35;5.07;;;;;;;;;;4283978;32;20055;-79
2022/01/07 11:13:39;;;;;;;19.05;4.50;;;;;;;;;;4375733;32;20041;-79
2022/01/07 11:16:17;;;;;;;13.77;3.97;;;;;;;;;;4335453;32;20077;-79
2022/01/07 11:18:44;;;;;;;16.92;4.07;;;;;;;;;;4375964;32;20392;-79
2022/01/07 11:21:12;;;;;;;17.62;3.72;;;;;;;;;;4375470;32;20069;-79
2022/01/07 11:23:38;;;;;;;14.93;3.47;;;;;;;;;;4374477;32;20024;-79
2022/01/07 11:26:10;;;;;;;11.82;3.03;;;;;;;;;;4375485;32;20342;-79
2022/01/07 11:29:08;;;;;;;12.85;3.08;;;;;;;;;;4375261;32;20050;-79
2022/01/07 11:31:39;;;;;;;15.30;3.35;;;;;;;;;;4375596;32;20062;-80
2022/01/07 11:34:22;;;;;;;19.92;4.03;;;;;;;;;;4375873;32;20055;-78
2022/01/07 11:40:07;;;;;;;16.62;3.65;;;;;;;;;;4315018;33;20102;-80
2022/01/07 11:43:08;;;;;;;13.43;2.80;;;;;;;;;;4306242;33;20185;-79
2022/01/07 11:45:34;;;;;;;15.43;3.55;;;;;;;;;;4298404;33;20115;-79
2022/01/07 11:48:14;;;;;;;;;;;;;;;;;;4299963;33;20025;-79
2022/01/07 11:54:18;;;;;;;12.15;2.25;;;;;;;;;;4343224;32;20486;-79
2022/01/07 11:56:58;;;;;;;10.15;2.58;;;;;;;;;;4376056;32;20069;-79
2022/01/07 12:02:52;;;;;;;8.23;2.22;;;;;;;;;;4332399;33;20043;-79
2022/01/07 12:09:20;;;;;;;11.73;2.67;;;;;;;;;;4259707;33;20467;-79
2022/01/07 12:11:46;;;;;;;9.13;2.22;;;;;;;;;;4280688;33;20024;-78
2022/01/07 12:14:25;;;;;;;11.12;3.08;;;;;;;;;;4368720;32;20031;-79
2022/01/07 12:17:11;;;;;;;;;;;;;;;;;;;;;
2022/01/07 12:20:17;;;;;;;;;;;;;;;;;;;;;
2022/01/07 12:25:57;;;;;;;15.27;3.00;;;;;;;;;;4378005;32;20069;-79
2022/01/07 12:34:45;;;;;;;14.90;3.15;;;;;;;;;;4378075;32;20057;-79
2022/01/07 12:37:43;;;;;;;9.20;2.40;;;;;;;;;;4346151;33;20095;-79
2022/01/07 12:52:32;;;;;;;12.73;3.22;;;;;;;;;;4331453;33;20086;-78
2022/01/07 13:02:14;;;;;;;10.13;2.20;;;;;;;;;;4302081;33;20091;-79
2022/01/07 13:14:33;;;;;;;10.48;4.03;;;;;;;;;;4272921;33;20091;-78
2022/01/07 13:19:59;;;;;;;12.20;3.80;;;;;;;;;;4291636;33;20052;-78
2022/01/07 13:25:38;;;;;;;18.85;6.57;;;;;;;;;;4296248;33;20028;-79
2022/01/07 13:28:41;;;;;;;19.98;3.30;;;;;;;;;;4377673;32;20049;-78
2022/01/07 13:31:01;;;;;;;11.07;2.17;;;;;;;;;;4372930;32;20094;-79
2022/01/07 13:56:16;;;;;;;11.52;3.15;;;;;;;;;;4230227;34;20045;-77
2022/01/07 14:04:40;;;;;;;14.70;3.00;;;;;;;;;;4229969;34;20048;-79
2022/01/07 14:23:19;;;;;;;6.75;2.45;;;;;;;;;;4225753;33;20042;-78
2022/01/07 14:25:48;;;;;;;7.95;3.20;;;;;;;;;;4216541;33;20182;-78
2022/01/07 14:29:00;;;;;;;9.90;2.75;;;;;;;;;;4220210;34;20050;-78
2022/01/07 14:31:34;;;;;;;9.63;2.20;;;;;;;;;;4229238;34;20373;-78
2022/01/07 14:34:24;;;;;;;5.85;2.12;;;;;;;;;;4229508;34;20069;-78
2022/01/07 14:37:21;;;;;;;3.65;1.90;;;;;;;;;;4228694;34;20053;-79
2022/01/07 14:39:46;;;;;;;8.90;2.17;;;;;;;;;;4228885;33;20042;-79
2022/01/07 14:42:17;;;;;;;;;;;;;;;;;;4271903;33;20025;-79
2022/01/07 14:50:37;;;;;;;9.90;3.30;;;;;;;;;;4324949;32;20097;-79
2022/01/07 14:53:08;;;;;;;16.27;4.32;;;;;;;;;;4372556;32;20031;-79
2022/01/07 15:02:09;;;;;;;12.40;3.17;;;;;;;;;;4367288;32;20089;-78
2022/01/07 15:05:22;;;;;;;12.20;2.75;;;;;;;;;;4343448;32;20058;-78
2022/01/07 15:08:16;;;;;;;10.18;2.50;;;;;;;;;;4313636;33;20430;-78
2022/01/07 15:14:01;;;;;;;13.57;2.80;;;;;;;;;;4384263;32;20077;-78
2022/01/07 15:26:14;;;;;;;9.40;3.75;;;;;;;;;;4319403;33;20090;-78
2022/01/07 15:31:55;;;;;;;;;;;;;;;;;;;;;
2022/01/07 15:34:41;;;;;;;13.68;2.87;;;;;;;;;;4353825;32;20031;-78
2022/01/07 15:37:09;;;;;;;7.03;1.48;;;;;;;;;;4379400;32;20351;-78
2022/01/07 15:39:40;;;;;;;6.90;1.42;;;;;;;;;;4390353;32;20088;-78
2022/01/07 15:42:06;;;;;;;6.15;1.77;;;;;;;;;;4389982;32;20031;-78
2022/01/07 15:44:31;;;;;;;;;;;;;;;;;;4390271;32;20022;-78
2022/01/07 15:50:09;;;;;;;4.30;2.03;;;;;;;;;;4382005;32;20085;-79
2022/01/07 16:05:18;;;;;;;11.27;2.90;;;;;;;;;;4328381;33;20050;-78
2022/01/07 16:08:08;;;;;;;12.00;2.62;;;;;;;;;;4316426;33;20036;-79
2022/01/07 16:11:06;;;;;;;;;;;;;;;;;;;;;
2022/01/07 16:16:15;;;;;;;12.57;2.28;;;;;;;;;;4342688;33;19976;-79
2022/01/07 16:27:42;;;;;;;;;;;;;;;;;;;;;
2022/01/07 16:30:09;;;;;;;13.40;2.83;;;;;;;;;;4390075;32;20031;-78
2022/01/07 16:35:38;;;;;;;7.20;2.92;;;;;;;;;;4354143;32;20057;-79
2022/01/07 16:38:07;;;;;;;9.10;2.55;;;;;;;;;;4382936;32;20031;-80
2022/01/07 17:11:56;;;;;;;;;;;;;;;;;;;;;
2022/01/07 17:20:57;;;;;;;10.15;3.30;;;;;;;;;;4281453;33;20033;-78
2022/01/07 17:23:23;;;;;;;9.73;2.78;;;;;;;;;;4299412;33;20028;-77
2022/01/07 17:25:51;;;;;;;;;;;;;;;;;;4316660;33;20047;-79
2022/01/07 17:28:17;;;;;;;18.92;4.57;;;;;;;;;;4328337;33;19974;-78
2022/01/07 17:33:32;;;;;;;15.73;3.22;;;;;;;;;;4391779;32;19972;-78
2022/01/07 17:35:57;;;;;;;10.73;3.30;;;;;;;;;;4377774;32;20357;-78
2022/01/07 17:50:22;;;;;;;15.65;4.37;;;;;;;;;;4359764;32;20055;-79
2022/01/07 17:53:13;;;;;;;10.05;3.80;;;;;;;;;;4353582;32;20028;-79
2022/01/07 17:55:57;;;;;;;9.15;3.12;;;;;;;;;;4344933;33;20015;-80
2022/01/07 17:58:42;;;;;;;11.32;3.40;;;;;;;;;;4344556;33;20028;-78
2022/01/07 18:01:07;;;;;;;25.40;5.03;;;;;;;;;;4334316;33;20031;-79
2022/01/07 18:03:34;;;;;;;;;;;;;;;;;;4359300;32;20461;-79
2022/01/07 18:06:03;;;;;;;23.30;4.47;;;;;;;;;;4371951;32;20324;-79
2022/01/07 18:08:46;;;;;;;20.52;4.90;;;;;;;;;;4362306;32;20014;-79
2022/01/07 18:11:31;;;;;;;17.45;7.10;;;;;;;;;;4376334;32;20020;-79
2022/01/07 18:14:06;;;;;;;15.90;5.03;;;;;;;;;;4360346;32;20066;-78
2022/01/07 18:16:58;;;;;;;;;;;;;;;;;;;;;
2022/01/07 18:25:37;;;;;;;17.03;3.73;;;;;;;;;;4366184;32;20053;-78
2022/01/07 18:28:21;;;;;;;20.00;4.00;;;;;;;;;;4343278;33;20137;-78
2022/01/07 18:31:06;;;;;;;16.67;4.82;;;;;;;;;;4344131;33;20036;-79
2022/01/07 18:33:39;;;;;;;12.95;3.65;;;;;;;;;;4344640;33;20057;-79
2022/01/07 18:36:18;;;;;;;7.50;2.87;;;;;;;;;;4344951;33;20465;-78
2022/01/07 18:39:14;;;;;;;12.65;3.95;;;;;;;;;;4345165;33;20122;-80
2022/01/07 18:41:42;;;;;;;12.32;3.00;;;;;;;;;;4341040;33;20027;-79
2022/01/07 18:50:16;;;;;;;8.40;3.72;;;;;;;;;;4350209;32;20050;-80
2022/01/07 18:52:44;;;;;;;10.35;3.22;;;;;;;;;;4359385;32;20098;-80
2022/01/07 18:55:37;;;;;;;19.45;5.82;;;;;;;;;;4359040;33;20038;-80
2022/01/07 18:58:34;;;;;;;14.95;6.10;;;;;;;;;;4361268;32;20110;-80
2022/01/07 19:04:18;;;;;;;15.07;4.93;;;;;;;;;;4342639;33;20054;-80
2022/01/07 19:06:44;;;;;;;9.07;4.05;;;;;;;;;;4374710;32;20019;-79
2022/01/07 19:09:09;;;;;;;;;;;;;;;;;;4391625;32;20034;-78
2022/01/07 19:12:35;;;;;;;8.88;3.12;;;;;;;;;;4390895;32;19960;-77
2022/01/07 19:14:32;;;;;;;6.57;2.25;;;;;;;;;;4376811;32;20126;-79
2022/01/07 19:20:04;;;;;;;16.12;3.90;;;;;;;;;;4350072;33;20476;-78
2022/01/07 19:22:35;;;;;;;;;;;;;;;;;;4375102;32;20439;-79
2022/01/07 19:25:39;;;;;;;7.28;2.30;;;;;;;;;;4362693;32;19997;-79
2022/01/07 19:28:17;;;;;;;11.20;2.50;;;;;;;;;;4358210;32;20035;-79
2022/01/07 19:31:13;;;;;;;6.28;2.22;;;;;;;;;;4373762;32;20097;-78
2022/01/07 19:33:57;;;;;;;12.77;2.92;;;;;;;;;;4367283;32;20080;-78
2022/01/07 19:36:27;;;;;;;10.13;2.10;;;;;;;;;;4376038;32;20392;-78
2022/01/07 19:42:19;;;;;;;6.32;1.95;;;;;;;;;;4344006;33;20066;-79
2022/01/07 19:45:19;;;;;;;;;;;;;;;;;;;;;
2022/01/07 19:48:19;;;;;;;7.00;3.53;;;;;;;;;;4389744;32;20019;-78
2022/01/07 19:51:00;;;;;;;8.23;3.53;;;;;;;;;;4344573;32;20085;-78
2022/01/07 19:53:38;;;;;;;13.93;2.60;;;;;;;;;;4375121;32;20028;-79
2022/01/07 19:56:23;;;;;;;7.25;3.22;;;;;;;;;;4343892;33;20440;-79
2022/01/07 19:59:20;;;;;;;9.43;3.47;;;;;;;;;;4343383;33;20414;-79
2022/01/07 20:01:44;;;;;;;10.80;3.50;;;;;;;;;;4342582;33;20055;-79
2022/01/07 20:04:35;;;;;;;;;;;;;;;;;;4344320;33;20471;-79
2022/01/07 20:10:27;;;;;;;13.43;4.72;;;;;;;;;;4313816;33;20106;-79
2022/01/07 20:13:04;;;;;;;13.88;6.30;;;;;;;;;;4299540;33;20025;-79
2022/01/07 20:16:20;;;;;;;16.35;7.32;;;;;;;;;;4335282;33;20058;-79
2022/01/07 20:19:25;;;;;;;29.83;15.77;;;;;;;;;;4339180;33;20051;-79
2022/01/07 20:25:41;;;;;;;12.82;4.18;;;;;;;;;;4259428;33;20100;-79
2022/01/07 20:28:06;;;;;;;14.20;5.50;;;;;;;;;;4316409;33;20032;-80
2022/01/07 20:30:42;;;;;;;19.02;5.10;;;;;;;;;;4374918;32;20034;-79
2022/01/07 20:33:31;;;;;;;10.05;4.97;;;;;;;;;;4392968;32;20049;-79
2022/01/07 20:36:01;;;;;;;17.70;4.40;;;;;;;;;;4389898;32;20039;-79
2022/01/07 20:39:16;;;;;;;12.57;4.50;;;;;;;;;;4392905;32;20100;-82
2022/01/07 20:41:44;;;;;;;12.80;4.25;;;;;;;;;;4388797;32;20128;-79
2022/01/07 20:44:16;;;;;;;12.20;5.25;;;;;;;;;;4392499;32;20424;-79
2022/01/07 20:46:45;;;;;;;16.98;4.43;;;;;;;;;;4382313;32;20035;-80
2022/01/07 20:49:13;;;;;;;12.43;4.82;;;;;;;;;;4383974;32;20097;-79
2022/01/07 20:51:45;;;;;;;17.58;6.72;;;;;;;;;;4391813;32;20049;-79
2022/01/07 20:54:21;;;;;;;;;;;;;;;;;;;;;
2022/01/07 20:56:50;;;;;;;13.18;8.38;;;;;;;;;;4392948;32;20019;-79
2022/01/07 20:59:47;;;;;;;15.32;6.47;;;;;;;;;;4376684;32;20084;-79
2022/01/07 21:02:15;;;;;;;9.77;3.83;;;;;;;;;;4372367;32;20047;-79
2022/01/07 21:07:56;;;;;;;10.90;4.50;;;;;;;;;;4338434;32;20080;-78
2022/01/07 21:11:23;;;;;;;17.27;5.20;;;;;;;;;;4374418;32;20014;-79
2022/01/07 21:16:53;;;;;;;13.13;4.22;;;;;;;;;;4392534;32;20053;-79
2022/01/07 21:19:25;;;;;;;19.25;4.72;;;;;;;;;;4392427;32;20041;-79
2022/01/07 21:22:16;;;;;;;11.05;3.85;;;;;;;;;;4391530;32;20076;-78
2022/01/07 21:24:48;;;;;;;11.90;5.05;;;;;;;;;;4392512;32;20355;-79
2022/01/07 21:27:31;;;;;;;33.13;20.40;;;;;;;;;;4391804;32;20455;-78
2022/01/07 21:30:15;;;;;;;16.60;6.93;;;;;;;;;;4392073;32;20073;-78
2022/01/07 21:33:09;;;;;;;11.57;4.87;;;;;;;;;;4390510;32;20022;-78
2022/01/07 21:35:49;;;;;;;8.32;4.07;;;;;;;;;;4378282;32;20061;-79
2022/01/07 21:38:15;;;;;;;15.38;4.10;;;;;;;;;;4372697;32;20459;-78
2022/01/07 21:40:40;;;;;;;;;;;;;;;;;;4392527;32;20018;-79
2022/01/07 21:43:21;;;;;;;;;;;;;;;;;;;;;
2022/01/07 21:46:08;;;;;;;14.70;4.82;;;;;;;;;;4377281;32;20150;-80
2022/01/07 21:49:01;;;;;;;11.20;4.22;;;;;;;;;;4315769;33;20040;-79
2022/01/07 21:51:35;;;;;;;13.93;4.03;;;;;;;;;;4375387;32;20336;-79
2022/01/07 21:54:10;;;;;;;11.85;4.53;;;;;;;;;;4385234;32;20089;-78
2022/01/07 21:56:54;;;;;;;16.12;7.47;;;;;;;;;;4391854;32;20054;-80
2022/01/07 21:59:35;;;;;;;;;;;;;;;;;;;;;
2022/01/07 22:02:19;;;;;;;22.48;7.45;;;;;;;;;;4377041;32;20042;-79
2022/01/07 22:04:50;;;;;;;33.85;17.37;;;;;;;;;;4382721;32;20071;-79
2022/01/07 22:07:42;;;;;;;46.35;25.37;;;;;;;;;;4391767;32;20478;-80
2022/01/07 22:10:35;;;;;;;17.98;9.15;;;;;;;;;;4391642;32;20027;-79
2022/01/07 22:13:55;;;;;;;;;;;;;;;;;;;;;
2022/01/07 22:16:46;;;;;;;;;;;;;;;;;;;;;
2022/01/07 22:22:36;;;;;;;10.77;5.05;;;;;;;;;;4377263;32;20073;-79
2022/01/07 22:25:30;;;;;;;9.75;4.72;;;;;;;;;;4376621;32;20089;-78
2022/01/07 22:37:06;;;;;;;15.07;6.15;;;;;;;;;;4376220;32;20062;-80
2022/01/07 22:40:06;;;;;;;13.32;6.45;;;;;;;;;;4362604;32;20019;-79
2022/01/07 22:42:50;;;;;;;;;;;;;;;;;;;;;
2022/01/07 22:57:32;;;;;;;16.90;6.80;;;;;;;;;;4329814;33;20016;-78
2022/01/07 23:00:35;;;;;;;16.17;5.95;;;;;;;;;;4391176;32;20060;-79
2022/01/07 23:03:27;;;;;;;16.45;6.43;;;;;;;;;;4359166;32;20079;-77
2022/01/07 23:06:38;;;;;;;13.02;5.80;;;;;;;;;;4381895;32;20492;-78
2022/01/07 23:12:35;;;;;;;;;;;;;;;;;;;;;
2022/01/07 23:15:12;;;;;;;12.45;5.32;;;;;;;;;;4353900;32;20014;-78
2022/01/07 23:18:02;;;;;;;;;;;;;;;;;;;;;
2022/01/07 23:26:12;;;;;;;19.05;6.22;;;;;;;;;;4344415;33;20042;-79
2022/01/07 23:28:40;;;;;;;18.42;7.47;;;;;;;;;;4344079;33;20081;-78
2022/01/07 23:31:13;;;;;;;9.38;5.93;;;;;;;;;;4352052;32;20117;-78
2022/01/07 23:33:39;;;;;;;31.75;7.82;;;;;;;;;;4375226;32;20113;-79
2022/01/07 23:36:04;;;;;;;;;;;;;;;;;;4390218;32;20433;-79
2022/01/07 23:38:32;;;;;;;12.57;6.28;;;;;;;;;;4390430;32;19945;-78
2022/01/07 23:41:00;;;;;;;17.75;6.28;;;;;;;;;;4390422;32;20045;-79
2022/01/07 23:43:29;;;;;;;16.62;6.28;;;;;;;;;;4390109;32;20077;-79
2022/01/07 23:45:59;;;;;;;15.18;6.60;;;;;;;;;;4390494;32;20049;-80
2022/01/07 23:48:27;;;;;;;14.52;7.57;;;;;;;;;;4376799;32;20084;-79
2022/01/07 23:51:09;;;;;;;17.25;6.15;;;;;;;;;;4376582;32;20045;-80
2022/01/07 23:53:52;;;;;;;15.57;6.50;;;;;;;;;;4377127;32;20064;-79
2022/01/07 23:59:34;;;;;;;18.65;6.90;;;;;;;;;;4393772;32;20049;-79
